createdAt,value
2019-03-18T00:00:46.995Z,72.16
2019-03-18T00:03:16.153Z,72.31
2019-03-18T00:05:45.347Z,72.25
2019-03-18T00:08:14.521Z,72.51
2019-03-18T00:10:43.763Z,72.50
2019-03-18T00:13:12.893Z,72.31
2019-03-18T00:16:00.118Z,72.46
2019-03-18T00:18:47.375Z,72.55
2019-03-18T00:21:34.629Z,73.02
2019-03-18T00:24:21.603Z,73.40
2019-03-18T00:26:50.807Z,73.83
2019-03-18T00:29:20.074Z,73.91
2019-03-18T00:31:49.215Z,73.90
2019-03-18T00:34:18.376Z,74.41
2019-03-18T00:36:47.593Z,74.26
2019-03-18T00:39:16.832Z,74.67
2019-03-18T00:41:45.948Z,74.97
2019-03-18T00:44:32.726Z,76.81
2019-03-18T00:47:01.901Z,78.95
2019-03-18T00:49:31.086Z,79.19
2019-03-18T00:52:00.288Z,80.88
2019-03-18T00:54:29.455Z,81.08
2019-03-18T00:56:58.685Z,81.68
2019-03-18T00:59:27.862Z,81.98
2019-03-18T01:01:57.033Z,82.45
2019-03-18T01:04:26.217Z,82.90
2019-03-18T01:06:55.381Z,82.43
2019-03-18T01:09:24.597Z,82.43
2019-03-18T01:11:53.843Z,82.21
2019-03-18T01:14:23.016Z,82.03
2019-03-18T01:16:52.194Z,81.68
2019-03-18T01:19:21.366Z,81.40
2019-03-18T01:21:50.570Z,81.25
2019-03-18T01:24:19.741Z,81.07
2019-03-18T01:26:48.919Z,81.04
2019-03-18T01:29:18.118Z,80.86
2019-03-18T01:31:47.336Z,80.64
2019-03-18T01:34:16.529Z,80.21
2019-03-18T01:36:45.796Z,79.91
2019-03-18T01:39:14.971Z,79.92
2019-03-18T01:41:44.161Z,79.60
2019-03-18T01:44:13.336Z,79.55
2019-03-18T01:46:42.572Z,79.28
2019-03-18T01:49:11.856Z,79.01
2019-03-18T01:51:41.024Z,78.80
2019-03-18T01:54:10.222Z,78.70
2019-03-18T01:56:39.386Z,79.07
2019-03-18T01:59:08.558Z,78.86
2019-03-18T02:01:37.738Z,78.41
2019-03-18T02:04:06.902Z,78.06
2019-03-18T02:06:36.108Z,77.31
2019-03-18T02:09:06.524Z,76.79
2019-03-18T02:11:35.899Z,76.37
2019-03-18T02:14:05.139Z,76.27
2019-03-18T02:16:34.306Z,76.58
2019-03-18T02:19:03.546Z,76.71
2019-03-18T02:21:32.704Z,76.47
2019-03-18T02:24:01.875Z,76.57
2019-03-18T02:26:31.057Z,76.68
2019-03-18T02:29:00.254Z,76.81
2019-03-18T02:31:29.482Z,76.25
2019-03-18T02:33:58.619Z,75.97
2019-03-18T02:36:27.793Z,76.14
2019-03-18T02:38:56.979Z,76.74
2019-03-18T02:41:26.137Z,77.07
2019-03-18T02:43:55.329Z,77.17
2019-03-18T02:46:24.494Z,76.88
2019-03-18T02:48:53.664Z,77.00
2019-03-18T02:51:22.847Z,77.06
2019-03-18T02:53:52.026Z,76.44
2019-03-18T02:56:21.232Z,75.73
2019-03-18T02:58:50.407Z,72.63
2019-03-18T03:01:19.570Z,70.42
2019-03-18T03:03:48.742Z,69.82
2019-03-18T03:06:17.942Z,69.54
2019-03-18T03:08:47.113Z,69.84
2019-03-18T03:11:16.293Z,69.96
2019-03-18T03:13:45.489Z,71.02
2019-03-18T03:16:26.139Z,71.80
2019-03-18T03:18:45.525Z,72.52
2019-03-18T03:21:14.697Z,73.07
2019-03-18T03:23:43.891Z,73.94
2019-03-18T03:26:13.070Z,74.03
2019-03-18T03:28:42.242Z,73.97
2019-03-18T03:31:11.488Z,74.18
2019-03-18T03:33:40.690Z,74.39
2019-03-18T03:36:09.887Z,74.35
2019-03-18T03:38:39.041Z,74.34
2019-03-18T03:41:08.277Z,73.98
2019-03-18T03:43:37.476Z,73.57
2019-03-18T03:46:06.647Z,73.56
2019-03-18T03:48:35.825Z,73.28
2019-03-18T03:51:04.989Z,73.34
2019-03-18T03:53:34.166Z,73.48
2019-03-18T03:56:03.550Z,73.42
2019-03-18T03:58:32.748Z,73.30
2019-03-18T04:01:03.459Z,73.40
2019-03-18T04:03:38.617Z,73.32
2019-03-18T04:06:03.693Z,73.68
2019-03-18T04:08:32.887Z,73.64
2019-03-18T04:11:02.058Z,73.70
2019-03-18T04:13:31.193Z,74.07
2019-03-18T04:16:00.427Z,75.43
2019-03-18T04:18:29.615Z,75.60
2019-03-18T04:20:58.862Z,75.71
2019-03-18T04:23:28.037Z,75.83
2019-03-18T04:25:57.266Z,76.26
2019-03-18T04:28:26.516Z,76.77
2019-03-18T04:30:55.697Z,76.49
2019-03-18T04:33:24.890Z,76.63
2019-03-18T04:35:54.052Z,76.98
2019-03-18T04:38:23.255Z,77.26
2019-03-18T04:40:52.503Z,77.37
2019-03-18T04:43:21.662Z,77.28
2019-03-18T04:45:50.966Z,77.39
2019-03-18T04:48:20.164Z,77.89
2019-03-18T04:50:49.337Z,78.43
2019-03-18T04:53:18.518Z,78.42
2019-03-18T04:55:47.705Z,78.18
2019-03-18T04:58:16.920Z,78.00
2019-03-18T05:00:46.085Z,77.12
2019-03-18T05:03:15.272Z,76.32
2019-03-18T05:05:44.540Z,75.32
2019-03-18T05:08:13.715Z,74.18
2019-03-18T05:10:43.869Z,74.25
2019-03-18T05:13:13.041Z,74.47
2019-03-18T05:15:42.221Z,74.89
2019-03-18T05:18:11.404Z,75.27
2019-03-18T05:20:40.627Z,75.34
2019-03-18T05:23:09.808Z,75.64
2019-03-18T05:25:39.011Z,75.68
2019-03-18T05:31:02.191Z,76.34
2019-03-18T05:33:31.387Z,75.76
2019-03-18T05:36:00.562Z,72.89
2019-03-18T05:38:29.741Z,73.00
2019-03-18T05:40:58.926Z,71.43
2019-03-18T05:43:28.093Z,70.12
2019-03-18T05:45:57.307Z,69.00
2019-03-18T05:48:26.473Z,69.45
2019-03-18T05:50:55.647Z,69.76
2019-03-18T05:53:24.829Z,69.82
2019-03-18T05:55:53.989Z,70.57
2019-03-18T05:58:23.223Z,70.83
2019-03-18T06:00:52.368Z,70.91
2019-03-18T06:03:21.597Z,70.66
2019-03-18T06:05:50.767Z,69.89
2019-03-18T06:08:19.923Z,69.61
2019-03-18T06:10:49.139Z,68.90
2019-03-18T06:13:18.309Z,68.60
2019-03-18T06:16:05.889Z,68.32
2019-03-18T06:18:35.040Z,68.05
2019-03-18T06:21:04.226Z,67.60
2019-03-18T06:23:33.401Z,67.70
2019-03-18T06:26:02.574Z,68.19
2019-03-18T06:28:31.798Z,67.57
2019-03-18T06:31:00.962Z,67.72
2019-03-18T06:33:30.143Z,68.11
2019-03-18T06:35:59.319Z,67.75
2019-03-18T06:38:28.488Z,67.16
2019-03-18T06:40:57.693Z,67.04
2019-03-18T06:43:26.873Z,67.09
2019-03-18T06:45:56.047Z,67.47
2019-03-18T06:48:25.228Z,69.61
2019-03-18T06:50:54.415Z,73.72
2019-03-18T06:53:23.620Z,76.04
2019-03-18T06:55:52.804Z,77.47
2019-03-18T06:58:21.972Z,78.13
2019-03-18T07:00:51.139Z,78.10
2019-03-18T07:03:20.310Z,77.62
2019-03-18T07:05:49.505Z,75.53
2019-03-18T07:08:18.686Z,74.61
2019-03-18T07:10:47.867Z,74.52
2019-03-18T07:13:17.027Z,73.36
2019-03-18T07:15:46.200Z,72.70
2019-03-18T07:18:18.680Z,72.28
2019-03-18T07:20:46.241Z,71.79
2019-03-18T07:23:15.410Z,72.05
2019-03-18T07:25:44.585Z,71.80
2019-03-18T07:28:13.751Z,71.53
2019-03-18T07:30:42.937Z,70.55
2019-03-18T07:33:12.113Z,70.55
2019-03-18T07:35:41.296Z,69.32
2019-03-18T07:38:10.473Z,64.96
2019-03-18T07:40:57.723Z,61.76
2019-03-18T07:43:26.895Z,52.75
2019-03-18T07:45:56.093Z,52.75
2019-03-18T07:48:30.724Z,49.36
2019-03-18T07:50:56.183Z,45.47
2019-03-18T07:53:25.363Z,43.38
2019-03-18T07:55:54.541Z,41.29
2019-03-18T07:58:23.711Z,43.47
2019-03-18T08:00:53.041Z,43.04
2019-03-18T08:03:22.252Z,42.94
2019-03-18T08:05:51.419Z,39.87
2019-03-18T08:08:20.784Z,41.53
2019-03-18T08:10:49.947Z,41.24
2019-03-18T08:13:19.139Z,38.02
2019-03-18T08:15:48.336Z,36.11
2019-03-18T08:18:17.513Z,38.35
2019-03-18T08:20:46.686Z,40.34
2019-03-18T08:23:15.875Z,45.67
2019-03-18T08:25:45.057Z,52.51
2019-03-18T08:28:14.240Z,60.67
2019-03-18T08:30:43.411Z,65.12
2019-03-18T08:33:12.593Z,65.12
2019-03-18T08:35:41.763Z,66.95
2019-03-18T08:38:10.945Z,68.33
2019-03-18T08:40:40.120Z,67.28
2019-03-18T08:43:09.303Z,61.48
2019-03-18T08:45:38.486Z,62.02
2019-03-18T08:48:07.659Z,66.02
2019-03-18T08:50:36.917Z,68.08
2019-03-18T08:53:06.088Z,69.69
2019-03-18T08:55:35.257Z,70.82
2019-03-18T08:58:04.471Z,69.70
2019-03-18T09:00:33.647Z,68.27
2019-03-18T09:03:02.873Z,67.96
2019-03-18T09:05:31.995Z,66.30
2019-03-18T09:08:01.166Z,66.04
2019-03-18T09:10:30.342Z,63.50
2019-03-18T09:12:59.914Z,59.63
2019-03-18T09:15:29.077Z,61.54
2019-03-18T09:17:58.256Z,63.34
2019-03-18T09:20:27.426Z,63.17
2019-03-18T09:22:56.653Z,61.81
2019-03-18T09:25:25.825Z,61.91
2019-03-18T09:27:54.989Z,62.61
2019-03-18T09:30:24.183Z,61.13
2019-03-18T09:32:53.351Z,61.32
2019-03-18T09:35:22.545Z,62.52
2019-03-18T09:37:51.786Z,62.29
2019-03-18T09:40:20.975Z,62.30
2019-03-18T09:42:50.156Z,62.23
2019-03-18T09:45:19.462Z,62.55
2019-03-18T09:48:07.566Z,62.71
2019-03-18T09:50:36.736Z,63.14
2019-03-18T09:53:05.914Z,63.28
2019-03-18T09:55:35.095Z,64.40
2019-03-18T09:58:04.337Z,64.40
2019-03-18T10:00:33.516Z,65.65
2019-03-18T10:03:02.682Z,65.65
2019-03-18T10:05:31.854Z,65.26
2019-03-18T10:08:01.067Z,65.81
2019-03-18T10:10:30.237Z,65.46
2019-03-18T10:13:27.734Z,64.95
2019-03-18T10:15:56.914Z,63.13
2019-03-18T10:18:26.088Z,60.80
2019-03-18T10:20:55.590Z,61.29
2019-03-18T10:23:24.771Z,59.82
2019-03-18T10:25:53.985Z,56.88
2019-03-18T10:28:23.138Z,56.25
2019-03-18T10:30:52.315Z,55.61
2019-03-18T10:33:21.502Z,55.03
2019-03-18T10:35:50.660Z,53.83
2019-03-18T10:38:19.878Z,51.86
2019-03-18T10:40:49.043Z,52.73
2019-03-18T10:43:18.214Z,52.84
2019-03-18T10:45:47.385Z,54.45
2019-03-18T10:48:16.554Z,55.40
2019-03-18T10:50:45.876Z,56.54
2019-03-18T10:53:15.045Z,57.44
2019-03-18T10:55:44.282Z,58.21
2019-03-18T10:58:13.480Z,57.43
2019-03-18T11:00:42.651Z,57.96
2019-03-18T11:03:11.902Z,57.49
2019-03-18T11:05:41.110Z,56.49
2019-03-18T11:08:10.307Z,57.94
2019-03-18T11:10:39.496Z,55.41
2019-03-18T11:13:08.691Z,56.48
2019-03-18T11:15:37.883Z,56.86
2019-03-18T11:18:07.054Z,56.28
2019-03-18T11:20:36.264Z,56.67
2019-03-18T11:23:05.454Z,53.09
2019-03-18T11:25:34.627Z,50.64
2019-03-18T11:28:03.868Z,50.06
2019-03-18T11:30:33.040Z,50.71
2019-03-18T11:33:02.322Z,51.34
2019-03-18T11:35:31.506Z,50.14
2019-03-18T11:38:00.685Z,48.14
2019-03-18T11:40:29.860Z,43.67
2019-03-18T11:42:59.043Z,44.71
2019-03-18T11:45:28.243Z,45.05
2019-03-18T11:47:57.422Z,46.27
2019-03-18T11:50:26.591Z,46.24
2019-03-18T11:52:55.951Z,46.97
2019-03-18T11:55:26.469Z,47.96
2019-03-18T11:57:55.852Z,47.17
2019-03-18T12:00:26.253Z,48.63
2019-03-18T12:02:55.467Z,49.70
2019-03-18T12:05:28.258Z,53.47
2019-03-18T12:07:57.481Z,55.79
2019-03-18T12:10:26.661Z,56.23
2019-03-18T12:12:55.820Z,56.05
2019-03-18T12:15:26.229Z,56.28
2019-03-18T12:17:55.470Z,55.89
2019-03-18T12:20:25.674Z,53.05
2019-03-18T12:22:55.130Z,52.14
2019-03-18T12:25:24.304Z,54.18
2019-03-18T12:27:53.483Z,55.00
2019-03-18T12:30:25.400Z,54.45
2019-03-18T12:32:54.565Z,52.83
2019-03-18T12:35:23.763Z,55.90
2019-03-18T12:37:53.100Z,57.98
2019-03-18T12:40:22.268Z,57.30
2019-03-18T12:42:51.448Z,57.11
2019-03-18T12:45:21.781Z,56.33
2019-03-18T12:47:51.027Z,54.32
2019-03-18T12:50:43.179Z,54.29
2019-03-18T12:52:55.309Z,55.01
2019-03-18T12:55:24.559Z,54.90
2019-03-18T12:57:53.721Z,54.40
2019-03-18T13:00:33.637Z,53.84
2019-03-18T13:03:02.821Z,53.35
2019-03-18T13:05:32.046Z,54.25
2019-03-18T13:08:01.215Z,54.69
2019-03-18T13:10:30.465Z,55.46
2019-03-18T13:12:59.671Z,56.21
2019-03-18T13:15:28.823Z,56.87
2019-03-18T13:17:58.014Z,56.12
2019-03-18T13:20:30.285Z,52.47
2019-03-18T13:22:59.514Z,52.45
2019-03-18T13:25:28.955Z,53.98
2019-03-18T13:27:58.122Z,54.57
2019-03-18T13:30:27.305Z,54.60
2019-03-18T13:32:56.497Z,53.83
2019-03-18T13:35:25.666Z,56.42
2019-03-18T13:37:54.857Z,58.86
2019-03-18T13:40:24.040Z,60.14
2019-03-18T13:42:53.229Z,60.84
2019-03-18T13:45:25.131Z,61.33
2019-03-18T13:47:54.315Z,60.29
2019-03-18T13:50:41.451Z,60.29
2019-03-18T13:53:29.135Z,58.18
2019-03-18T13:55:58.276Z,55.28
2019-03-18T13:58:30.121Z,54.13
2019-03-18T14:00:59.375Z,52.42
2019-03-18T14:03:29.934Z,49.71
2019-03-18T14:06:00.912Z,49.00
2019-03-18T14:08:30.113Z,48.88
2019-03-18T14:10:59.354Z,46.67
2019-03-18T14:13:28.535Z,44.55
2019-03-18T14:15:57.760Z,45.02
2019-03-18T14:18:26.938Z,44.90
2019-03-18T14:20:56.120Z,46.63
2019-03-18T14:23:25.329Z,46.63
2019-03-18T14:25:54.510Z,47.04
2019-03-18T14:28:23.686Z,47.83
2019-03-18T14:30:52.928Z,48.72
2019-03-18T14:33:22.089Z,47.82
2019-03-18T14:35:51.301Z,48.09
2019-03-18T14:38:23.037Z,48.61
2019-03-18T14:40:51.356Z,49.36
2019-03-18T14:43:20.519Z,49.87
2019-03-18T14:45:49.694Z,48.58
2019-03-18T14:48:18.866Z,47.16
2019-03-18T14:50:48.028Z,48.66
2019-03-18T14:53:17.198Z,49.93
2019-03-18T14:55:46.461Z,49.52
2019-03-18T14:58:15.632Z,48.59
2019-03-18T15:00:44.805Z,47.69
2019-03-18T15:03:13.983Z,45.11
2019-03-18T15:05:43.165Z,45.43
2019-03-18T15:08:12.368Z,43.59
2019-03-18T15:10:41.547Z,43.60
2019-03-18T15:13:10.705Z,44.95
2019-03-18T15:15:39.880Z,45.30
2019-03-18T15:18:09.058Z,45.89
2019-03-18T15:20:38.281Z,45.74
2019-03-18T15:23:07.445Z,45.89
2019-03-18T15:25:36.878Z,45.53
2019-03-18T15:28:06.050Z,45.38
2019-03-18T15:30:35.221Z,45.67
2019-03-18T15:33:04.500Z,43.62
2019-03-18T15:35:33.664Z,43.89
2019-03-18T15:38:02.827Z,44.95
2019-03-18T15:40:31.995Z,44.51
2019-03-18T15:43:01.161Z,43.13
2019-03-18T15:45:30.359Z,44.31
2019-03-18T15:47:59.911Z,45.44
2019-03-18T15:50:29.090Z,45.22
2019-03-18T15:52:58.327Z,46.34
2019-03-18T15:55:27.499Z,47.18
2019-03-18T15:57:56.947Z,47.97
2019-03-18T16:00:30.365Z,49.10
2019-03-18T16:03:17.807Z,49.44
2019-03-18T16:05:47.021Z,49.65
2019-03-18T16:08:16.193Z,50.62
2019-03-18T16:10:45.368Z,50.97
2019-03-18T16:13:14.559Z,51.38
2019-03-18T16:15:43.772Z,51.50
2019-03-18T16:18:12.955Z,51.20
2019-03-18T16:20:42.202Z,53.18
2019-03-18T16:23:11.373Z,53.56
2019-03-18T16:25:40.545Z,53.37
2019-03-18T16:28:09.717Z,53.52
2019-03-18T16:30:38.919Z,52.67
2019-03-18T16:33:08.102Z,52.64
2019-03-18T16:35:37.272Z,51.54
2019-03-18T16:38:06.433Z,51.37
2019-03-18T16:40:35.618Z,52.57
2019-03-18T16:43:04.859Z,53.21
2019-03-18T16:45:34.020Z,53.75
2019-03-18T16:48:03.179Z,54.16
2019-03-18T16:50:50.575Z,54.24
2019-03-18T16:53:38.063Z,54.23
2019-03-18T16:56:07.264Z,54.51
2019-03-18T16:58:36.426Z,54.43
2019-03-18T17:01:05.964Z,54.25
2019-03-18T17:03:35.135Z,52.71
2019-03-18T17:06:04.364Z,52.79
2019-03-18T17:08:33.554Z,52.95
2019-03-18T17:11:02.816Z,52.98
2019-03-18T17:13:31.994Z,52.91
2019-03-18T17:16:01.153Z,52.21
2019-03-18T17:18:30.327Z,51.39
2019-03-18T17:20:59.669Z,47.66
2019-03-18T17:23:28.835Z,47.38
2019-03-18T17:25:58.022Z,48.65
2019-03-18T17:28:27.200Z,49.16
2019-03-18T17:30:56.372Z,49.91
2019-03-18T17:33:25.562Z,50.15
2019-03-18T17:35:54.731Z,50.03
2019-03-18T17:38:23.897Z,50.10
2019-03-18T17:40:53.067Z,50.29
2019-03-18T17:43:22.236Z,50.93
2019-03-18T17:45:51.431Z,51.88
2019-03-18T17:48:20.615Z,52.95
2019-03-18T17:51:08.028Z,52.97
2019-03-18T17:53:37.212Z,53.33
2019-03-18T17:56:06.380Z,53.02
2019-03-18T17:58:35.558Z,53.08
2019-03-18T18:01:22.782Z,52.37
2019-03-18T18:04:10.437Z,52.16
2019-03-18T18:06:51.941Z,51.64
2019-03-18T18:09:21.076Z,52.22
2019-03-18T18:11:50.254Z,52.12
2019-03-18T18:14:19.430Z,51.96
2019-03-18T18:16:48.952Z,51.88
2019-03-18T18:19:18.174Z,52.02
2019-03-18T18:21:47.454Z,51.94
2019-03-18T18:24:16.621Z,52.20
2019-03-18T18:26:45.804Z,52.09
2019-03-18T18:29:15.006Z,52.10
2019-03-18T18:31:44.223Z,52.15
2019-03-18T18:34:13.390Z,52.37
2019-03-18T18:36:42.576Z,52.34
2019-03-18T18:39:12.108Z,52.77
2019-03-18T18:41:41.295Z,52.75
2019-03-18T18:44:10.492Z,52.87
2019-03-18T18:46:39.667Z,53.33
2019-03-18T18:49:08.892Z,53.10
2019-03-18T18:51:38.071Z,52.94
2019-03-18T18:54:07.499Z,53.16
2019-03-18T18:56:36.711Z,53.13
2019-03-18T18:59:05.913Z,53.10
2019-03-18T19:01:35.092Z,53.43
2019-03-18T19:04:04.344Z,53.28
2019-03-18T19:06:33.518Z,53.49
2019-03-18T19:09:02.709Z,53.75
2019-03-18T19:11:31.881Z,54.04
2019-03-18T19:14:01.064Z,54.08
2019-03-18T19:16:30.248Z,54.11
2019-03-18T19:18:59.425Z,54.07
2019-03-18T19:21:28.646Z,54.05
2019-03-18T19:23:57.813Z,53.77
2019-03-18T19:26:27.004Z,53.88
2019-03-18T19:28:56.216Z,53.84
2019-03-18T19:31:25.389Z,53.76
2019-03-18T19:33:54.566Z,54.30
2019-03-18T19:36:23.742Z,54.04
2019-03-18T19:38:52.925Z,54.21
2019-03-18T19:41:22.130Z,54.12
2019-03-18T19:43:51.318Z,53.85
2019-03-18T19:46:20.486Z,53.81
2019-03-18T19:48:49.675Z,54.04
2019-03-18T19:51:18.846Z,54.16
2019-03-18T19:53:49.422Z,54.03
2019-03-18T19:56:18.830Z,54.35
2019-03-18T19:58:48.002Z,54.17
2019-03-18T20:01:17.760Z,53.92
2019-03-18T20:03:47.014Z,53.76
2019-03-18T20:06:16.198Z,53.94
2019-03-18T20:08:45.425Z,53.92
2019-03-18T20:11:14.594Z,53.83
2019-03-18T20:13:43.767Z,53.98
2019-03-18T20:16:12.952Z,54.44
2019-03-18T20:18:42.132Z,54.58
2019-03-18T20:21:11.348Z,54.67
2019-03-18T20:23:40.791Z,54.77
2019-03-18T20:26:10.000Z,55.49
2019-03-18T20:28:39.203Z,55.27
2019-03-18T20:31:08.356Z,55.01
2019-03-18T20:33:37.587Z,55.03
2019-03-18T20:36:06.773Z,55.38
2019-03-18T20:38:35.942Z,55.10
2019-03-18T20:41:05.117Z,55.09
2019-03-18T20:43:34.292Z,55.13
2019-03-18T20:46:03.639Z,55.06
2019-03-18T20:48:32.801Z,54.92
2019-03-18T20:51:01.988Z,54.76
2019-03-18T20:53:31.490Z,54.81
2019-03-18T20:56:00.679Z,54.75
2019-03-18T20:58:29.862Z,54.61
2019-03-18T21:00:59.033Z,55.03
2019-03-18T21:03:28.210Z,55.07
2019-03-18T21:05:57.426Z,54.97
2019-03-18T21:08:26.575Z,54.85
2019-03-18T21:10:55.769Z,54.92
2019-03-18T21:13:24.940Z,54.74
2019-03-18T21:15:54.111Z,54.41
2019-03-18T21:18:23.304Z,54.58
2019-03-18T21:20:52.484Z,54.52
2019-03-18T21:23:21.704Z,54.67
2019-03-18T21:25:50.909Z,54.81
2019-03-18T21:28:20.075Z,54.72
2019-03-18T21:30:49.252Z,55.01
2019-03-18T21:33:18.428Z,55.18
2019-03-18T21:35:47.628Z,54.89
2019-03-18T21:38:17.383Z,55.03
2019-03-18T21:40:46.789Z,55.15
2019-03-18T21:43:16.052Z,55.07
2019-03-18T21:45:45.184Z,55.06
2019-03-18T21:48:14.394Z,55.17
2019-03-18T21:50:43.608Z,55.12
2019-03-18T21:53:12.792Z,55.37
2019-03-18T21:55:42.022Z,55.57
2019-03-18T21:58:11.198Z,55.55
2019-03-18T22:00:40.489Z,55.48
2019-03-18T22:03:09.726Z,56.00
2019-03-18T22:05:38.977Z,56.68
2019-03-18T22:08:08.154Z,56.69
2019-03-18T22:10:37.341Z,56.62
2019-03-18T22:13:06.593Z,56.85
2019-03-18T22:15:35.773Z,56.43
2019-03-18T22:18:05.058Z,56.19
2019-03-18T22:20:34.197Z,56.26
2019-03-18T22:23:03.450Z,56.13
2019-03-18T22:25:34.624Z,56.13
2019-03-18T22:28:03.492Z,56.26
2019-03-18T22:30:32.662Z,56.02
2019-03-18T22:33:01.867Z,55.91
2019-03-18T22:35:31.050Z,55.89
2019-03-18T22:38:00.319Z,55.68
2019-03-18T22:40:29.494Z,55.82
2019-03-18T22:42:58.689Z,55.98
2019-03-18T22:45:27.866Z,56.44
2019-03-18T22:47:57.053Z,56.93
2019-03-18T22:50:26.244Z,57.97
2019-03-18T22:52:55.418Z,58.29
2019-03-18T22:55:24.592Z,58.89
2019-03-18T22:57:53.825Z,58.91
2019-03-18T23:00:41.530Z,59.54
2019-03-18T23:03:10.727Z,59.72
2019-03-18T23:05:39.905Z,59.51
2019-03-18T23:08:09.075Z,59.32
2019-03-18T23:10:38.246Z,59.39
2019-03-18T23:13:07.420Z,59.93
2019-03-18T23:15:36.613Z,59.97
2019-03-18T23:18:05.856Z,60.16
2019-03-18T23:20:35.026Z,60.83
2019-03-18T23:23:04.632Z,61.03
2019-03-18T23:25:33.826Z,60.38
2019-03-18T23:28:03.079Z,60.21
2019-03-18T23:30:32.257Z,60.09
2019-03-18T23:33:01.431Z,59.74
2019-03-18T23:35:30.623Z,59.54
2019-03-18T23:37:59.773Z,59.37
2019-03-18T23:40:28.962Z,59.26
2019-03-18T23:42:58.140Z,59.46
2019-03-18T23:45:27.671Z,59.62
2019-03-18T23:47:56.877Z,59.47
2019-03-18T23:50:26.046Z,59.24
2019-03-18T23:52:55.313Z,59.11
2019-03-18T23:55:24.545Z,59.71
2019-03-18T23:57:54.497Z,60.25
